Time;durP1;ratioP1;P1;durP2;ratioP2;P2;SDS_P1;SDS_P2;PMS_P1;PMS_P2;Temp;Humidity;BMP_temperature;BMP_pressure;BME280_temperature;BME280_humidity;BME280_pressure;Samples;Min_cycle;Max_cycle;Signal;HPM_P1;HPM_P2
2022/02/06 00:00:11;;;;;;;10.73;1.90;;;;;;;7.19;100.00;101474.00;5285120;28;20429;-77
2022/02/06 00:02:45;;;;;;;12.07;2.35;;;;;;;7.16;100.00;101468.06;5285476;28;20088;-78
2022/02/06 00:05:16;;;;;;;13.75;2.90;;;;;;;7.08;100.00;101455.38;5285116;28;20035;-78
2022/02/06 00:07:47;;;;;;;9.27;2.08;;;;;;;7.05;100.00;101450.28;5285186;28;20028;-77
2022/02/06 00:10:19;;;;;;;11.27;2.25;;;;;;;7.04;100.00;101432.59;5285368;28;20034;-77
2022/02/06 00:12:49;;;;;;;9.30;2.42;;;;;;;7.04;100.00;101419.25;5285158;28;20110;-79
2022/02/06 00:15:21;;;;;;;13.30;2.47;;;;;;;7.10;100.00;101416.06;5266898;28;20459;-78
2022/02/06 00:17:51;;;;;;;8.05;2.30;;;;;;;7.18;100.00;101412.75;5285143;28;20030;-78
2022/02/06 00:20:29;;;;;;;7.75;2.58;;;;;;;7.16;100.00;101404.84;5290093;28;20110;-78
2022/02/06 00:23:05;;;;;;;13.68;2.47;;;;;;;7.15;100.00;101405.84;5289355;28;20083;-78
2022/02/06 00:25:52;;;;;;;9.80;2.10;;;;;;;7.16;100.00;101378.16;5292244;28;20308;-78
2022/02/06 00:28:37;;;;;;;11.48;2.50;;;;;;;7.18;100.00;101367.38;5289559;28;20024;-79
2022/02/06 00:39:34;;;;;;;12.52;2.17;;;;;;;7.18;100.00;101349.56;5289777;28;20028;-79
2022/02/06 00:42:05;;;;;;;9.82;2.47;;;;;;;7.13;100.00;101369.56;5272995;28;20028;-79
2022/02/06 00:44:35;;;;;;;5.30;2.00;;;;;;;7.09;100.00;101352.16;5297423;28;20700;-80
2022/02/06 00:47:06;;;;;;;14.70;2.30;;;;;;;7.03;100.00;101345.53;5274633;28;20102;-79
2022/02/06 00:49:38;;;;;;;8.68;2.33;;;;;;;7.05;100.00;101353.41;5289012;28;20019;-79
2022/02/06 00:52:16;;;;;;;5.72;2.13;;;;;;;7.07;100.00;101346.94;5287898;28;20039;-78
2022/02/06 00:54:47;;;;;;;8.13;2.40;;;;;;;7.10;100.00;101335.16;5288281;28;20011;-78
2022/02/06 00:57:17;;;;;;;12.38;2.72;;;;;;;7.17;100.00;101312.31;5253333;28;20016;-79
2022/02/06 00:59:48;;;;;;;10.50;2.63;;;;;;;7.19;100.00;101307.69;5269676;28;20114;-80
2022/02/06 01:02:18;;;;;;;10.95;2.15;;;;;;;7.25;100.00;101315.16;5287846;28;20031;-79
2022/02/06 01:04:49;;;;;;;6.50;2.05;;;;;;;7.24;100.00;101300.13;5269593;28;20115;-79
2022/02/06 01:07:19;;;;;;;10.07;2.20;;;;;;;7.28;100.00;101298.91;5288449;28;20034;-79
2022/02/06 01:09:50;;;;;;;9.30;2.10;;;;;;;7.23;100.00;101282.44;5289778;28;20024;-79
2022/02/06 01:12:24;;;;;;;8.02;2.15;;;;;;;7.22;100.00;101297.59;5294792;28;20493;-78
2022/02/06 01:17:49;;;;;;;9.45;3.10;;;;;;;7.29;100.00;101283.72;5290032;28;20063;-80
2022/02/06 01:20:25;;;;;;;8.85;2.00;;;;;;;7.28;100.00;101301.56;5287548;28;20110;-80
2022/02/06 01:23:01;;;;;;;8.57;1.92;;;;;;;7.37;100.00;101308.75;5287784;28;20403;-80
2022/02/06 01:25:39;;;;;;;13.18;1.60;;;;;;;7.39;100.00;101290.78;5287517;28;20023;-80
2022/02/06 01:28:15;;;;;;;8.55;2.38;;;;;;;7.42;100.00;101298.50;5287759;28;20053;-80
2022/02/06 01:30:53;;;;;;;6.28;1.77;;;;;;;7.38;100.00;101291.78;5285691;28;20517;-79
2022/02/06 01:33:31;;;;;;;7.30;1.92;;;;;;;7.40;100.00;101272.94;5279097;28;20440;-79
2022/02/06 01:41:25;;;;;;;7.07;1.67;;;;;;;7.45;100.00;101278.72;5286783;28;20024;-79
2022/02/06 02:03:38;;;;;;;11.40;1.85;;;;;;;7.38;100.00;101245.53;5291056;28;20098;-79
2022/02/06 02:17:27;;;;;;;10.02;2.47;;;;;;;7.02;100.00;101231.78;5286849;28;20019;-79
2022/02/06 02:20:22;;;;;;;11.40;3.15;;;;;;;6.93;100.00;101230.78;5266487;28;20035;-78
2022/02/06 02:23:11;;;;;;;10.63;2.17;;;;;;;6.86;100.00;101248.25;5291936;28;20530;-79
2022/02/06 02:31:46;;;;;;;13.38;2.33;;;;;;;6.72;100.00;101211.28;5278921;28;20024;-78
2022/02/06 02:48:20;;;;;;;11.27;2.38;;;;;;;6.56;100.00;101181.59;5289085;28;20509;-79
2022/02/06 02:50:57;;;;;;;7.20;2.10;;;;;;;6.51;100.00;101175.81;5288570;28;20038;-79
2022/02/06 02:53:36;;;;;;;9.02;2.72;;;;;;;6.56;100.00;101171.75;5269737;28;20092;-78
2022/02/06 03:01:56;;;;;;;14.57;2.53;;;;;;;6.60;100.00;101170.53;5289152;28;20027;-78
2022/02/06 03:04:27;;;;;;;6.35;2.67;;;;;;;6.62;100.00;101159.72;5289185;28;20020;-78
2022/02/06 03:06:58;;;;;;;12.55;2.63;;;;;;;6.62;100.00;101157.06;5288440;28;20031;-78
2022/02/06 03:09:34;;;;;;;13.73;2.53;;;;;;;6.65;100.00;101146.13;5289618;28;20022;-79
2022/02/06 03:12:13;;;;;;;7.75;2.78;;;;;;;6.68;100.00;101130.72;5288957;28;20039;-80
2022/02/06 03:14:50;;;;;;;8.73;2.20;;;;;;;6.69;100.00;101140.41;5269289;28;20451;-80
2022/02/06 03:17:33;;;;;;;6.90;2.45;;;;;;;6.70;100.00;101134.09;5270610;28;20020;-79
2022/02/06 03:20:08;;;;;;;12.85;2.38;;;;;;;6.71;100.00;101122.44;5288152;28;20394;-79
2022/02/06 03:22:50;;;;;;;12.55;3.03;;;;;;;6.67;100.00;101105.03;5287290;28;20032;-80
2022/02/06 03:25:23;;;;;;;12.38;2.65;;;;;;;6.68;100.00;101135.22;5269340;28;20179;-80
2022/02/06 03:27:54;;;;;;;11.63;2.80;;;;;;;6.69;100.00;101135.06;5271457;28;20027;-78
2022/02/06 03:30:29;;;;;;;11.88;2.20;;;;;;;6.68;100.00;101127.22;5289733;28;20038;-79
2022/02/06 03:33:00;;;;;;;12.68;3.50;;;;;;;6.61;100.00;101115.38;5272369;28;20043;-79
2022/02/06 03:35:30;;;;;;;17.80;2.88;;;;;;;6.58;100.00;101121.00;5287433;28;20509;-79
2022/02/06 03:38:01;;;;;;;15.77;3.33;;;;;;;6.55;100.00;101106.09;5287783;28;20096;-79
2022/02/06 03:40:39;;;;;;;13.02;2.60;;;;;;;6.54;100.00;101112.41;5269627;28;20403;-78
2022/02/06 03:46:07;;;;;;;13.25;2.80;;;;;;;6.55;100.00;101121.25;5277020;28;20395;-79
2022/02/06 03:54:13;;;;;;;13.65;2.97;;;;;;;6.46;100.00;101098.91;5291232;28;20016;-78
2022/02/06 03:56:44;;;;;;;10.60;2.90;;;;;;;6.49;100.00;101102.16;5291741;28;20023;-79
2022/02/06 03:59:15;;;;;;;17.30;4.45;;;;;;;6.48;100.00;101092.47;5290192;28;20023;-78
2022/02/06 04:01:45;;;;;;;16.10;3.35;;;;;;;6.47;100.00;101098.75;5289860;28;20542;-77
2022/02/06 04:04:16;;;;;;;17.52;3.40;;;;;;;6.45;100.00;101090.06;5290149;28;20110;-77
2022/02/06 04:06:46;;;;;;;13.25;3.97;;;;;;;6.43;100.00;101086.72;5290838;28;20073;-77
2022/02/06 04:09:22;;;;;;;11.20;4.00;;;;;;;6.42;100.00;101079.66;5290880;28;20061;-78
2022/02/06 04:11:54;;;;;;;11.20;2.53;;;;;;;6.44;100.00;101083.06;5291286;28;20016;-78
2022/02/06 04:14:28;;;;;;;8.55;2.55;;;;;;;6.45;100.00;101067.91;5290985;28;20038;-78
2022/02/06 04:17:07;;;;;;;8.83;2.63;;;;;;;6.45;100.00;101074.09;5291353;28;20054;-78
2022/02/06 04:19:38;;;;;;;13.38;2.75;;;;;;;6.41;100.00;101062.00;5289797;28;20020;-78
2022/02/06 04:22:09;;;;;;;12.45;3.30;;;;;;;6.36;100.00;101034.91;5291008;28;20034;-78
2022/02/06 04:24:39;;;;;;;12.48;3.03;;;;;;;6.43;100.00;101035.22;5291314;28;20386;-78
2022/02/06 04:27:11;;;;;;;8.32;2.92;;;;;;;6.36;100.00;101029.56;5291597;28;20050;-79
2022/02/06 04:29:42;;;;;;;13.32;2.58;;;;;;;6.38;100.00;101024.97;5274299;28;20027;-78
2022/02/06 04:32:12;;;;;;;11.05;3.65;;;;;;;6.37;100.00;101011.75;5280057;28;20024;-78
2022/02/06 04:34:43;;;;;;;10.85;2.58;;;;;;;6.37;100.00;100996.63;5289821;28;20016;-78
2022/02/06 04:45:56;;;;;;;11.60;3.10;;;;;;;6.49;100.00;100989.38;5290616;28;20028;-79
2022/02/06 04:51:55;;;;;;;13.40;3.42;;;;;;;6.55;100.00;100972.00;5289117;28;20122;-78
2022/02/06 05:22:33;;;;;;;9.18;2.75;;;;;;;6.84;100.00;100935.53;5289297;28;20019;-79
2022/02/06 05:25:35;;;;;;;6.47;2.53;;;;;;;6.91;100.00;100918.00;5270083;28;20410;-79
2022/02/06 05:30:58;;;;;;;12.98;3.00;;;;;;;6.90;100.00;100902.97;5285924;28;20753;-78
2022/02/06 05:33:28;;;;;;;11.45;3.13;;;;;;;6.87;100.00;100913.06;5281297;28;20016;-78
2022/02/06 05:35:59;;;;;;;10.63;3.67;;;;;;;6.86;100.00;100900.72;5290063;28;20440;-78
2022/02/06 05:38:30;;;;;;;9.57;3.40;;;;;;;6.87;100.00;100889.91;5294519;28;20028;-78
2022/02/06 05:41:00;;;;;;;8.13;2.53;;;;;;;6.85;100.00;100902.56;5258763;28;20023;-78
2022/02/06 05:43:31;;;;;;;9.95;3.15;;;;;;;6.89;100.00;100897.78;5289660;28;20432;-79
2022/02/06 05:46:02;;;;;;;10.18;2.70;;;;;;;6.86;100.00;100885.56;5290293;28;20032;-78
2022/02/06 05:48:33;;;;;;;14.80;3.25;;;;;;;6.87;100.00;100894.41;5289285;28;20232;-79
2022/02/06 05:51:03;;;;;;;13.38;3.10;;;;;;;6.85;100.00;100889.22;5290546;28;20024;-79
2022/02/06 05:53:34;;;;;;;12.80;3.28;;;;;;;6.84;100.00;100874.22;5283428;28;20051;-81
2022/02/06 05:56:05;;;;;;;9.90;3.05;;;;;;;6.80;100.00;100866.63;5269302;28;20071;-81
2022/02/06 05:58:36;;;;;;;12.82;3.53;;;;;;;6.80;100.00;100870.13;5287794;28;20450;-79
2022/02/06 06:01:06;;;;;;;10.88;3.63;;;;;;;6.78;100.00;100879.25;5288897;28;20032;-79
2022/02/06 06:03:37;;;;;;;10.95;3.55;;;;;;;6.75;100.00;100859.88;5289085;28;20493;-79
2022/02/06 06:06:07;;;;;;;13.88;3.35;;;;;;;6.72;100.00;100857.50;5268935;28;20035;-78
2022/02/06 06:08:38;;;;;;;8.93;3.28;;;;;;;6.75;100.00;100867.06;5287948;28;20558;-78
2022/02/06 06:11:08;;;;;;;23.60;4.03;;;;;;;6.69;100.00;100859.63;5289198;28;20517;-78
2022/02/06 06:13:39;;;;;;;15.68;4.07;;;;;;;6.71;100.00;100846.97;5291024;28;20024;-78
2022/02/06 06:16:09;;;;;;;13.63;4.03;;;;;;;6.80;100.00;100856.81;5288736;28;20479;-80
2022/02/06 06:18:40;;;;;;;14.40;3.15;;;;;;;6.83;100.00;100856.53;5269317;28;20560;-79
2022/02/06 06:21:12;;;;;;;14.95;3.25;;;;;;;6.80;100.00;100858.63;5287492;28;20112;-77
2022/02/06 06:23:43;;;;;;;13.23;3.45;;;;;;;6.81;100.00;100846.97;5286994;28;20016;-84
2022/02/06 06:26:17;;;;;;;16.92;3.40;;;;;;;6.78;100.00;100847.25;5288996;28;20527;-82
2022/02/06 06:28:47;;;;;;;18.10;3.90;;;;;;;6.79;100.00;100846.28;5270340;28;20038;-77
2022/02/06 06:31:18;;;;;;;17.35;3.75;;;;;;;6.75;100.00;100817.22;5268224;28;20019;-79
2022/02/06 06:33:48;;;;;;;8.10;3.15;;;;;;;6.78;100.00;100813.47;5288141;28;20055;-77
2022/02/06 06:36:21;;;;;;;12.43;4.00;;;;;;;6.79;100.00;100831.13;5287560;28;20541;-77
2022/02/06 06:38:53;;;;;;;12.93;3.28;;;;;;;6.86;100.00;100826.91;5287358;28;20385;-77
2022/02/06 06:41:23;;;;;;;10.88;3.38;;;;;;;6.80;100.00;100811.47;5287900;28;20296;-79
2022/02/06 06:43:54;;;;;;;10.48;3.90;;;;;;;6.80;100.00;100808.81;5289279;28;20138;-77
2022/02/06 06:46:24;;;;;;;13.38;3.50;;;;;;;6.81;100.00;100826.47;5290552;28;20019;-77
2022/02/06 06:48:55;;;;;;;11.98;3.08;;;;;;;6.84;100.00;100823.53;5290929;28;20031;-77
2022/02/06 06:51:25;;;;;;;15.15;3.40;;;;;;;6.91;100.00;100797.97;5284976;28;20108;-77
2022/02/06 06:53:56;;;;;;;9.65;3.10;;;;;;;6.93;100.00;100793.34;5286290;28;20110;-77
2022/02/06 06:56:37;;;;;;;9.60;2.78;;;;;;;6.90;100.00;100796.28;5288302;28;20015;-77
2022/02/06 06:59:26;;;;;;;9.20;2.85;;;;;;;6.94;100.00;100792.38;5289904;28;20382;-77
2022/02/06 07:04:47;;;;;;;8.20;2.95;;;;;;;7.00;100.00;100778.44;5290358;28;20024;-77
2022/02/06 07:07:18;;;;;;;10.32;2.85;;;;;;;7.01;100.00;100777.44;5291647;28;20072;-77
2022/02/06 07:09:49;;;;;;;7.93;3.53;;;;;;;6.98;100.00;100767.09;5272581;28;20027;-78
2022/02/06 07:12:19;;;;;;;5.20;2.45;;;;;;;7.04;100.00;100764.81;5268114;28;20031;-78
2022/02/06 07:14:50;;;;;;;5.55;2.28;;;;;;;7.05;100.00;100742.50;5284979;28;20363;-78
2022/02/06 07:17:21;;;;;;;5.07;2.33;;;;;;;7.05;100.00;100761.16;5285215;28;20020;-78
2022/02/06 07:19:51;;;;;;;8.45;2.53;;;;;;;7.06;100.00;100738.84;5285473;28;20028;-78
2022/02/06 07:22:22;;;;;;;10.70;2.63;;;;;;;7.05;100.00;100746.00;5289206;28;20023;-77
2022/02/06 07:24:54;;;;;;;7.35;2.63;;;;;;;7.10;100.00;100726.88;5285011;28;20023;-78
2022/02/06 07:27:28;;;;;;;13.48;3.10;;;;;;;7.11;100.00;100709.91;5287174;28;20030;-78
2022/02/06 07:30:03;;;;;;;8.15;2.72;;;;;;;7.10;100.00;100719.72;5292372;28;20024;-78
2022/02/06 07:32:37;;;;;;;6.78;2.30;;;;;;;7.19;100.00;100716.19;5274080;28;20076;-78
2022/02/06 07:35:09;;;;;;;8.93;3.38;;;;;;;7.17;100.00;100707.47;5292468;28;20656;-78
2022/02/06 07:37:45;;;;;;;10.48;2.58;;;;;;;7.18;100.00;100703.00;5291973;28;20028;-78
2022/02/06 07:40:15;;;;;;;6.07;2.40;;;;;;;7.20;100.00;100701.00;5296324;28;20027;-80
2022/02/06 07:42:46;;;;;;;12.93;2.70;;;;;;;7.20;100.00;100693.00;5280027;28;20035;-79
2022/02/06 07:45:16;;;;;;;8.55;2.70;;;;;;;7.21;100.00;100687.50;5279118;28;20042;-79
2022/02/06 07:47:48;;;;;;;5.80;2.63;;;;;;;7.22;100.00;100691.00;5296999;28;20447;-81
2022/02/06 07:50:18;;;;;;;10.27;3.33;;;;;;;7.22;100.00;100672.34;5278078;28;20093;-81
2022/02/06 07:52:49;;;;;;;12.60;2.80;;;;;;;7.23;100.00;100669.53;5272279;28;20506;-81
2022/02/06 07:55:20;;;;;;;11.45;3.28;;;;;;;7.24;100.00;100660.53;5275511;28;20024;-81
2022/02/06 07:57:50;;;;;;;9.90;2.47;;;;;;;7.25;100.00;100680.06;5274151;28;20093;-80
2022/02/06 08:00:20;;;;;;;9.38;2.53;;;;;;;7.25;100.00;100656.88;5256140;28;20051;-83
2022/02/06 08:02:51;;;;;;;9.65;2.30;;;;;;;7.23;100.00;100666.88;5282562;28;20486;-79
2022/02/06 08:05:21;;;;;;;14.02;2.75;;;;;;;7.25;100.00;100666.72;5281449;28;20031;-81
2022/02/06 08:07:53;;;;;;;6.75;2.75;;;;;;;7.29;100.00;100645.91;5282109;28;21623;-80
2022/02/06 08:10:24;;;;;;;7.15;2.10;;;;;;;7.29;100.00;100614.72;5281863;28;20445;-79
2022/02/06 08:13:05;;;;;;;8.10;2.45;;;;;;;7.36;100.00;100639.81;5281876;28;20111;-79
2022/02/06 08:15:37;;;;;;;11.35;3.90;;;;;;;7.36;100.00;100622.97;5264194;28;20046;-81
2022/02/06 08:18:07;;;;;;;9.80;2.58;;;;;;;7.33;100.00;100629.47;5280756;28;20031;-79
2022/02/06 08:20:40;;;;;;;7.93;2.53;;;;;;;7.34;100.00;100614.28;5281016;28;20032;-80
2022/02/06 08:23:10;;;;;;;5.20;1.80;;;;;;;7.38;100.00;100611.16;5280781;28;20419;-79
2022/02/06 08:25:41;;;;;;;7.72;1.92;;;;;;;7.38;100.00;100597.81;5280707;28;20034;-79
2022/02/06 08:28:11;;;;;;;9.23;3.00;;;;;;;7.36;100.00;100606.97;5281476;28;20111;-79
2022/02/06 08:30:43;;;;;;;8.88;2.22;;;;;;;7.32;100.00;100597.56;5280184;28;20034;-79
2022/02/06 08:33:14;;;;;;;6.30;2.30;;;;;;;7.30;100.00;100584.38;5262477;28;20027;-79
2022/02/06 08:35:45;;;;;;;9.57;2.40;;;;;;;7.31;100.00;100580.72;5281710;28;20047;-80
2022/02/06 08:38:16;;;;;;;6.97;2.33;;;;;;;7.34;100.00;100575.09;5280304;28;20031;-79
2022/02/06 08:40:46;;;;;;;5.82;2.22;;;;;;;7.32;100.00;100554.88;5256574;28;20035;-80
2022/02/06 08:43:17;;;;;;;10.43;2.00;;;;;;;7.29;100.00;100556.03;5278021;28;20111;-80
2022/02/06 08:45:47;;;;;;;4.75;2.10;;;;;;;7.32;100.00;100536.19;5259428;28;20061;-79
2022/02/06 08:48:18;;;;;;;7.25;2.25;;;;;;;7.29;100.00;100542.69;5260111;28;20030;-81
2022/02/06 08:50:48;;;;;;;7.78;1.98;;;;;;;7.31;100.00;100538.03;5260400;28;20042;-79
2022/02/06 08:53:19;;;;;;;6.00;1.92;;;;;;;7.31;100.00;100523.84;5259907;28;20024;-80
2022/02/06 08:55:50;;;;;;;6.82;3.17;;;;;;;7.32;100.00;100530.84;5277940;28;20486;-79
2022/02/06 08:58:20;;;;;;;7.00;1.92;;;;;;;7.32;100.00;100502.34;5260170;28;20032;-80
2022/02/06 09:00:51;;;;;;;8.23;1.70;;;;;;;7.33;100.00;100497.84;5277413;28;20024;-81
2022/02/06 09:03:22;;;;;;;4.82;1.75;;;;;;;7.31;100.00;100498.00;5276811;28;20475;-81
2022/02/06 09:05:52;;;;;;;9.63;2.35;;;;;;;7.34;100.00;100497.69;5286440;28;20023;-81
2022/02/06 09:08:23;;;;;;;3.28;1.83;;;;;;;7.39;100.00;100494.56;5282547;28;20020;-81
2022/02/06 09:10:53;;;;;;;5.97;1.63;;;;;;;7.40;100.00;100473.06;5247970;28;20088;-81
2022/02/06 09:13:23;;;;;;;4.53;1.48;;;;;;;7.38;100.00;100480.41;5280585;28;20028;-81
2022/02/06 09:15:54;;;;;;;11.45;2.10;;;;;;;7.35;100.00;100470.00;5281522;28;20023;-81
2022/02/06 09:18:25;;;;;;;5.03;1.60;;;;;;;7.36;100.00;100454.84;5281133;28;20054;-81
2022/02/06 09:20:55;;;;;;;5.75;1.60;;;;;;;7.37;100.00;100440.50;5262822;28;20047;-81
2022/02/06 09:23:26;;;;;;;4.45;1.75;;;;;;;7.36;100.00;100453.00;5263365;28;20059;-81
2022/02/06 09:25:56;;;;;;;2.90;1.13;;;;;;;7.37;100.00;100427.16;5263319;28;20043;-81
2022/02/06 09:28:26;;;;;;;3.53;1.40;;;;;;;7.39;100.00;100434.03;5246599;28;20088;-81
2022/02/06 09:30:57;;;;;;;7.90;2.00;;;;;;;7.39;100.00;100434.03;5264800;28;20032;-81
2022/02/06 09:36:16;;;;;;;6.45;1.92;;;;;;;7.37;100.00;100421.81;5280667;28;20038;-81
2022/02/06 09:38:47;;;;;;;4.32;1.55;;;;;;;7.37;100.00;100398.63;5281590;28;20390;-81
2022/02/06 09:41:19;;;;;;;5.63;1.80;;;;;;;7.42;100.00;100387.50;5281502;28;20028;-81
2022/02/06 09:43:50;;;;;;;5.00;1.95;;;;;;;7.42;100.00;100392.81;5280818;28;20039;-81
2022/02/06 09:46:22;;;;;;;4.63;1.52;;;;;;;7.41;100.00;100375.16;5263591;28;20028;-81
2022/02/06 09:48:53;;;;;;;5.22;1.92;;;;;;;7.42;100.00;100364.31;5279226;28;20550;-81
2022/02/06 09:51:24;;;;;;;3.22;1.40;;;;;;;7.47;100.00;100362.00;5261192;28;20027;-81
2022/02/06 09:53:55;;;;;;;4.18;1.40;;;;;;;7.50;100.00;100347.53;5280005;28;20026;-81
2022/02/06 09:56:28;;;;;;;4.78;1.48;;;;;;;7.50;100.00;100334.16;5261284;28;20110;-81
2022/02/06 09:59:03;;;;;;;5.82;1.90;;;;;;;7.52;100.00;100326.81;5279482;28;20019;-81
2022/02/06 10:01:35;;;;;;;4.20;1.20;;;;;;;7.55;100.00;100321.19;5275339;28;20028;-81
2022/02/06 10:04:08;;;;;;;4.22;1.17;;;;;;;7.55;100.00;100309.69;5275922;28;20031;-81
2022/02/06 10:06:49;;;;;;;9.80;3.78;;;;;;;7.57;100.00;100326.34;5275605;28;20015;-81
2022/02/06 10:09:25;;;;;;;7.35;3.08;;;;;;;7.61;100.00;100314.38;5257780;28;20020;-81
2022/02/06 10:11:57;;;;;;;7.25;1.55;;;;;;;7.57;100.00;100313.00;5276241;28;20039;-81
2022/02/06 10:14:29;;;;;;;8.68;3.00;;;;;;;7.61;100.00;100301.03;5241518;28;20020;-79
2022/02/06 10:16:59;;;;;;;3.58;1.73;;;;;;;7.62;100.00;100297.34;5275847;28;20024;-80
2022/02/06 10:19:31;;;;;;;5.85;2.65;;;;;;;7.62;100.00;100292.84;5275205;28;20034;-80
2022/02/06 10:22:22;;;;;;;2.53;1.90;;;;;;;7.64;100.00;100266.00;5276158;28;20371;-80
2022/02/06 10:25:11;;;;;;;3.85;1.50;;;;;;;7.65;100.00;100278.34;5277067;28;20028;-82
2022/02/06 10:28:10;;;;;;;3.33;1.63;;;;;;;7.65;100.00;100268.50;5259018;28;20040;-81
2022/02/06 10:30:44;;;;;;;4.47;1.45;;;;;;;7.68;100.00;100257.50;5258404;28;20036;-82
2022/02/06 10:33:17;;;;;;;4.30;1.55;;;;;;;7.68;100.00;100256.66;5241856;28;20429;-81
2022/02/06 10:35:51;;;;;;;8.82;1.85;;;;;;;7.70;100.00;100249.34;5256450;28;20029;-77
2022/02/06 10:38:24;;;;;;;5.65;1.75;;;;;;;7.70;100.00;100239.47;5257023;28;20396;-78
2022/02/06 10:41:11;;;;;;;9.18;1.90;;;;;;;7.72;100.00;100226.78;5274646;28;20035;-78
2022/02/06 10:44:02;;;;;;;8.93;2.60;;;;;;;7.75;100.00;100226.47;5274800;28;20488;-77
2022/02/06 10:46:47;;;;;;;3.40;1.40;;;;;;;7.76;100.00;100208.63;5274565;28;20459;-77
2022/02/06 10:49:19;;;;;;;6.47;1.40;;;;;;;7.76;100.00;100209.47;5274320;28;20135;-78
2022/02/06 10:51:51;;;;;;;3.05;1.50;;;;;;;7.80;100.00;100185.94;5275160;28;20822;-78
2022/02/06 10:54:41;;;;;;;6.60;1.38;;;;;;;7.81;100.00;100186.78;5274994;28;20471;-78
2022/02/06 10:57:14;;;;;;;2.92;1.50;;;;;;;7.77;100.00;100176.41;5276117;28;20024;-80
2022/02/06 10:59:47;;;;;;;5.88;2.10;;;;;;;7.82;100.00;100175.91;5275542;28;20436;-78
2022/02/06 11:02:20;;;;;;;4.15;1.27;;;;;;;7.76;100.00;100169.41;5255238;28;20020;-78
2022/02/06 11:05:21;;;;;;;6.35;1.98;;;;;;;7.80;100.00;100153.91;5275160;28;20024;-78
2022/02/06 11:08:12;;;;;;;3.47;1.25;;;;;;;7.84;100.00;100171.28;5270720;28;20050;-78
2022/02/06 11:10:43;;;;;;;6.00;1.35;;;;;;;7.84;100.00;100168.59;5274738;28;20036;-78
2022/02/06 11:13:16;;;;;;;2.53;1.33;;;;;;;7.85;100.00;100175.59;5274816;28;20051;-78
2022/02/06 11:15:47;;;;;;;9.23;1.20;;;;;;;7.86;100.00;100197.78;5274811;28;20020;-78
2022/02/06 11:18:22;;;;;;;2.80;1.00;;;;;;;7.88;100.00;100150.38;5274654;28;20093;-78
2022/02/06 11:20:57;;;;;;;3.80;1.38;;;;;;;7.94;100.00;100158.59;5273975;28;20062;-78
2022/02/06 11:23:46;;;;;;;5.13;1.67;;;;;;;7.97;100.00;100155.56;5274486;28;20106;-78
2022/02/06 11:26:20;;;;;;;1.95;0.98;;;;;;;8.01;100.00;100151.56;5274632;28;20030;-78
2022/02/06 11:28:55;;;;;;;2.55;0.95;;;;;;;8.08;100.00;100150.91;5273950;28;20440;-78
2022/02/06 11:31:26;;;;;;;2.47;1.02;;;;;;;8.13;100.00;100159.25;5240052;28;20062;-78
2022/02/06 11:33:56;;;;;;;2.42;1.08;;;;;;;8.20;100.00;100141.56;5273748;28;20104;-78
2022/02/06 11:45:55;;;;;;;7.47;1.20;;;;;;;8.56;100.00;100142.88;5274505;28;20562;-77
2022/02/06 11:48:29;;;;;;;6.07;1.70;;;;;;;8.63;100.00;100132.31;5274424;28;20074;-77
2022/02/06 11:51:00;;;;;;;8.23;2.77;;;;;;;8.70;100.00;100138.66;5277271;28;20034;-82
2022/02/06 11:53:38;;;;;;;8.60;1.92;;;;;;;8.78;100.00;100137.78;5260815;28;20016;-82
2022/02/06 11:56:23;;;;;;;10.68;2.20;;;;;;;8.82;100.00;100147.16;5278326;28;20047;-80
2022/02/06 11:59:06;;;;;;;12.15;1.88;;;;;;;8.94;100.00;100132.41;5261803;28;20043;-80
2022/02/06 12:01:37;;;;;;;13.00;2.65;;;;;;;8.97;100.00;100134.72;5261115;28;20028;-80
2022/02/06 12:04:24;;;;;;;17.60;2.70;;;;;;;8.93;100.00;100135.25;5260476;28;20392;-82
2022/02/06 12:06:57;;;;;;;13.98;2.53;;;;;;;8.95;100.00;100160.81;5279179;28;20550;-82
2022/02/06 12:09:31;;;;;;;31.20;14.60;;;;;;;8.95;100.00;100158.16;5244163;28;20028;-82
2022/02/06 12:12:21;;;;;;;24.52;8.93;;;;;;;8.96;100.00;100170.50;5260044;28;20019;-82
2022/02/06 12:15:45;;;;;;;15.07;6.22;;;;;;;8.95;100.00;100171.53;5278362;28;20778;-80
2022/02/06 12:18:37;;;;;;;15.30;5.07;;;;;;;8.96;100.00;100213.31;5280615;28;20024;-81
2022/02/06 12:21:10;;;;;;;18.98;3.00;;;;;;;8.94;100.00;100228.72;5264977;28;20031;-81
2022/02/06 12:23:59;;;;;;;8.20;1.48;;;;;;;8.46;100.00;100256.34;5283242;28;20039;-81
2022/02/06 12:26:30;;;;;;;10.45;1.30;;;;;;;8.06;100.00;100276.63;5265726;28;20032;-81
2022/02/06 12:29:21;;;;;;;6.47;1.23;;;;;;;7.82;100.00;100304.09;5261229;28;20402;-79
2022/02/06 12:31:59;;;;;;;4.15;0.65;;;;;;;7.39;100.00;100284.59;5278924;28;20168;-81
2022/02/06 12:37:33;;;;;;;2.35;0.30;;;;;;;6.86;100.00;100319.41;5277763;28;20111;-80
2022/02/06 12:40:08;;;;;;;4.32;0.70;;;;;;;6.77;100.00;100281.19;5260558;28;20019;-79
2022/02/06 12:42:43;;;;;;;4.57;1.73;;;;;;;6.72;100.00;100299.47;5278929;28;20390;-80
2022/02/06 12:45:17;;;;;;;16.13;7.00;;;;;;;6.77;100.00;100297.16;5278379;28;20459;-80
2022/02/06 12:47:50;;;;;;;4.90;1.23;;;;;;;6.82;100.00;100296.72;5278379;28;20024;-80
2022/02/06 12:50:25;;;;;;;9.65;1.42;;;;;;;6.86;100.00;100300.75;5260105;28;20028;-80
2022/02/06 12:52:57;;;;;;;8.55;2.80;;;;;;;6.85;100.00;100307.06;5277691;28;20020;-80
2022/02/06 12:55:30;;;;;;;9.30;3.55;;;;;;;6.85;100.00;100315.91;5277620;28;20046;-80
2022/02/06 12:58:02;;;;;;;5.65;1.88;;;;;;;6.85;100.00;100310.56;5276912;28;20040;-80
2022/02/06 13:00:36;;;;;;;4.53;0.77;;;;;;;6.83;100.00;100322.38;5278241;28;20023;-80
2022/02/06 13:03:29;;;;;;;11.07;4.25;;;;;;;6.79;100.00;100308.53;5277885;28;20031;-81
2022/02/06 13:06:05;;;;;;;8.85;3.40;;;;;;;6.79;100.00;100313.03;5259600;28;20028;-80
2022/02/06 13:08:39;;;;;;;3.63;0.82;;;;;;;6.82;100.00;100294.03;5276773;28;20111;-80
2022/02/06 13:11:18;;;;;;;8.05;1.08;;;;;;;6.80;100.00;100301.38;5259823;28;20019;-80
2022/02/06 13:25:18;;;;;;;4.95;1.30;;;;;;;6.79;100.00;100297.03;5277357;28;20464;-79
2022/02/06 13:28:14;;;;;;;3.85;1.50;;;;;;;6.80;100.00;100283.53;5277635;28;20047;-80
2022/02/06 13:31:15;;;;;;;4.10;0.70;;;;;;;6.86;100.00;100274.91;5258965;28;20028;-77
2022/02/06 13:39:30;;;;;;;7.72;2.70;;;;;;;6.93;100.00;100275.97;5276666;28;20027;-76
2022/02/06 13:42:16;;;;;;;20.85;10.95;;;;;;;6.99;100.00;100275.34;5244077;28;20120;-77
2022/02/06 13:45:01;;;;;;;40.58;24.60;;;;;;;6.97;100.00;100281.81;5258863;28;20399;-78
2022/02/06 13:47:33;;;;;;;;;;;;;;;7.04;100.00;100282.88;5276478;28;20027;-77
2022/02/06 13:50:09;;;;;;;3.42;1.30;;;;;;;7.02;100.00;100279.50;5257878;28;19916;-77
2022/02/06 13:52:43;;;;;;;5.63;3.75;;;;;;;7.05;100.00;100271.22;5276721;28;20027;-77
2022/02/06 13:55:16;;;;;;;4.78;0.52;;;;;;;7.08;100.00;100262.03;5275382;28;20012;-77
2022/02/06 13:57:46;;;;;;;3.75;1.50;;;;;;;7.07;100.00;100273.72;5276065;28;20024;-77
2022/02/06 14:00:19;;;;;;;2.67;1.08;;;;;;;7.07;100.00;100284.38;5275557;28;20363;-77
2022/02/06 14:03:05;;;;;;;5.32;1.63;;;;;;;7.01;100.00;100300.03;5276804;28;20409;-78
2022/02/06 14:05:35;;;;;;;3.78;1.30;;;;;;;6.93;100.00;100285.81;5269049;28;20387;-77
2022/02/06 14:08:09;;;;;;;5.63;1.40;;;;;;;6.94;100.00;100304.31;5276620;28;20027;-77
2022/02/06 14:13:28;;;;;;;2.38;0.38;;;;;;;6.86;100.00;100304.25;5276258;28;20024;-77
2022/02/06 14:16:17;;;;;;;2.03;0.40;;;;;;;6.81;100.00;100327.88;5258563;28;20039;-78
2022/02/06 14:18:53;;;;;;;4.63;0.82;;;;;;;6.81;100.00;100333.19;5275592;28;20024;-78
2022/02/06 14:21:24;;;;;;;1.00;0.70;;;;;;;6.71;100.00;100308.47;5275473;28;20031;-78
2022/02/06 14:24:13;;;;;;;3.83;1.38;;;;;;;6.63;100.00;100309.25;5257704;28;20027;-78
2022/02/06 14:27:04;;;;;;;2.60;1.17;;;;;;;6.53;100.00;100308.50;5276388;28;20131;-77
2022/02/06 14:29:35;;;;;;;3.15;0.55;;;;;;;6.48;100.00;100305.44;5277922;28;20077;-78
2022/02/06 14:32:24;;;;;;;2.08;1.00;;;;;;;6.54;100.00;100317.31;5275157;28;20027;-77
2022/02/06 14:35:13;;;;;;;4.60;0.77;;;;;;;6.58;100.00;100335.53;5275362;28;20020;-77
2022/02/06 14:37:51;;;;;;;1.17;0.77;;;;;;;6.66;100.00;100332.06;5274126;28;20027;-77